createdAt,value
2018-09-09T00:01:06.898Z,13.60
2018-09-09T00:03:34.988Z,13.60
2018-09-09T00:06:03.061Z,13.50
2018-09-09T00:08:31.146Z,13.40
2018-09-09T00:10:59.236Z,13.50
2018-09-09T00:13:27.313Z,13.50
2018-09-09T00:15:55.429Z,13.50
2018-09-09T00:18:23.491Z,13.40
2018-09-09T00:20:51.563Z,13.40
2018-09-09T00:23:19.676Z,13.40
2018-09-09T00:25:47.738Z,13.50
2018-09-09T00:28:15.800Z,13.50
2018-09-09T00:30:43.901Z,13.50
2018-09-09T00:33:12.013Z,13.50
2018-09-09T00:35:40.165Z,13.50
2018-09-09T00:38:08.225Z,13.50
2018-09-09T00:40:36.287Z,13.60
2018-09-09T00:43:04.369Z,13.60
2018-09-09T00:45:32.444Z,13.60
2018-09-09T00:48:00.520Z,13.70
2018-09-09T00:50:34.035Z,13.70
2018-09-09T00:53:07.681Z,13.70
2018-09-09T00:55:35.780Z,13.70
2018-09-09T00:58:03.844Z,13.80
2018-09-09T01:00:37.365Z,13.80
2018-09-09T01:03:05.743Z,13.80
2018-09-09T01:05:33.810Z,13.80
2018-09-09T01:08:01.895Z,13.80
2018-09-09T01:10:30.021Z,13.80
2018-09-09T01:12:58.558Z,13.70
2018-09-09T01:15:26.714Z,13.70
2018-09-09T01:17:54.818Z,13.60
2018-09-09T01:20:23.023Z,13.70
2018-09-09T01:22:51.109Z,13.70
2018-09-09T01:25:19.189Z,13.60
2018-09-09T01:27:47.253Z,13.60
2018-09-09T01:30:15.323Z,13.60
2018-09-09T01:32:43.428Z,13.60
2018-09-09T01:35:11.570Z,13.60
2018-09-09T01:37:39.755Z,13.50
2018-09-09T01:40:07.891Z,13.50
2018-09-09T01:42:35.985Z,13.60
2018-09-09T01:45:04.110Z,13.50
2018-09-09T01:47:32.193Z,13.60
2018-09-09T01:50:00.261Z,13.60
2018-09-09T01:52:28.333Z,13.50
2018-09-09T01:54:56.416Z,13.50
2018-09-09T01:57:24.637Z,13.40
2018-09-09T01:59:52.749Z,13.40
2018-09-09T02:02:20.821Z,13.40
2018-09-09T02:04:48.895Z,13.40
2018-09-09T02:07:16.985Z,13.40
2018-09-09T02:09:45.046Z,13.40
2018-09-09T02:12:13.122Z,13.30
2018-09-09T02:14:41.263Z,13.30
2018-09-09T02:17:09.347Z,13.20
2018-09-09T02:19:37.425Z,13.20
2018-09-09T02:22:05.541Z,13.10
2018-09-09T02:24:33.606Z,13.10
2018-09-09T02:27:01.685Z,13.00
2018-09-09T02:29:29.745Z,13.00
2018-09-09T02:31:57.835Z,13.10
2018-09-09T02:34:25.936Z,13.10
2018-09-09T02:36:54.009Z,13.00
2018-09-09T02:39:22.123Z,13.00
2018-09-09T02:41:50.201Z,13.00
2018-09-09T02:44:18.274Z,13.00
2018-09-09T02:46:46.353Z,13.00
2018-09-09T02:49:14.414Z,13.10
2018-09-09T02:51:42.491Z,13.10
2018-09-09T02:54:10.553Z,13.00
2018-09-09T02:56:38.644Z,13.10
2018-09-09T02:59:06.711Z,13.00
2018-09-09T03:01:34.810Z,13.00
2018-09-09T03:04:02.891Z,13.00
2018-09-09T03:06:30.970Z,12.90
2018-09-09T03:08:59.037Z,12.90
2018-09-09T03:11:27.154Z,12.80
2018-09-09T03:13:55.266Z,12.80
2018-09-09T03:16:23.335Z,12.80
2018-09-09T03:18:51.642Z,12.80
2018-09-09T03:21:19.701Z,12.80
2018-09-09T03:23:47.781Z,12.80
2018-09-09T03:26:15.857Z,12.80
2018-09-09T03:28:50.696Z,12.80
2018-09-09T03:31:18.751Z,12.90
2018-09-09T03:33:46.846Z,12.90
2018-09-09T03:36:14.918Z,12.90
2018-09-09T03:38:43.001Z,12.90
2018-09-09T03:41:11.090Z,13.00
2018-09-09T03:43:39.193Z,12.90
2018-09-09T03:46:07.262Z,12.90
2018-09-09T03:48:35.349Z,12.80
2018-09-09T03:51:03.405Z,12.80
2018-09-09T03:53:31.482Z,12.90
2018-09-09T03:55:59.547Z,12.90
2018-09-09T03:58:27.637Z,12.90
2018-09-09T04:00:55.697Z,12.80
2018-09-09T04:03:23.789Z,12.80
2018-09-09T04:05:51.841Z,12.80
2018-09-09T04:08:19.918Z,12.70
2018-09-09T04:10:48.007Z,12.80
2018-09-09T04:13:16.076Z,12.70
2018-09-09T04:15:44.214Z,12.70
2018-09-09T04:18:12.293Z,12.70
2018-09-09T04:20:40.370Z,12.70
2018-09-09T04:23:08.428Z,12.60
2018-09-09T04:25:36.530Z,12.50
2018-09-09T04:28:04.619Z,12.50
2018-09-09T04:30:32.689Z,12.50
2018-09-09T04:33:00.752Z,12.50
2018-09-09T04:35:28.841Z,12.50
2018-09-09T04:37:57.035Z,12.50
2018-09-09T04:40:25.250Z,12.80
2018-09-09T04:42:53.337Z,13.30
2018-09-09T04:45:21.402Z,13.50
2018-09-09T04:47:49.466Z,13.50
2018-09-09T04:50:17.537Z,13.60
2018-09-09T04:52:45.596Z,13.60
2018-09-09T04:55:13.687Z,13.70
2018-09-09T04:57:41.776Z,13.80
2018-09-09T05:00:09.881Z,13.80
2018-09-09T05:02:37.951Z,13.80
2018-09-09T05:05:06.541Z,13.80
2018-09-09T05:07:34.623Z,13.90
2018-09-09T05:10:02.683Z,13.90
2018-09-09T05:12:30.813Z,14.00
2018-09-09T05:14:58.924Z,14.10
2018-09-09T05:17:27.021Z,14.20
2018-09-09T05:19:55.301Z,14.20
2018-09-09T05:22:23.381Z,14.30
2018-09-09T05:24:51.483Z,14.30
2018-09-09T05:27:19.537Z,14.30
2018-09-09T05:29:47.608Z,14.30
2018-09-09T05:32:15.685Z,14.30
2018-09-09T05:34:43.749Z,14.20
2018-09-09T05:37:11.846Z,14.40
2018-09-09T05:39:39.925Z,14.40
2018-09-09T05:42:08.002Z,14.50
2018-09-09T05:44:36.127Z,14.60
2018-09-09T05:47:04.177Z,14.40
2018-09-09T05:49:32.317Z,14.50
2018-09-09T05:52:00.435Z,14.50
2018-09-09T05:54:28.517Z,14.50
2018-09-09T05:57:03.355Z,14.50
2018-09-09T05:59:31.423Z,14.50
2018-09-09T06:01:59.498Z,14.50
2018-09-09T06:04:27.591Z,14.60
2018-09-09T06:06:55.668Z,14.70
2018-09-09T06:09:23.752Z,14.70
2018-09-09T06:11:51.845Z,14.80
2018-09-09T06:14:19.977Z,14.90
2018-09-09T06:16:48.022Z,15.00
2018-09-09T06:19:16.085Z,15.00
2018-09-09T06:21:44.146Z,15.10
2018-09-09T06:24:12.237Z,15.20
2018-09-09T06:26:40.313Z,15.20
2018-09-09T06:29:08.379Z,15.30
2018-09-09T06:31:36.452Z,15.40
2018-09-09T06:34:04.614Z,15.50
2018-09-09T06:36:32.633Z,15.60
2018-09-09T06:39:00.710Z,15.60
2018-09-09T06:41:28.825Z,15.70
2018-09-09T06:43:56.965Z,15.80
2018-09-09T06:46:25.086Z,15.80
2018-09-09T06:48:53.160Z,16.10
2018-09-09T06:51:21.302Z,16.00
2018-09-09T06:53:49.366Z,15.90
2018-09-09T06:56:17.434Z,15.80
2018-09-09T06:58:45.489Z,15.80
2018-09-09T07:01:13.579Z,15.90
2018-09-09T07:03:41.641Z,16.00
2018-09-09T07:06:09.721Z,15.90
2018-09-09T07:08:37.813Z,16.10
2018-09-09T07:11:05.987Z,16.20
2018-09-09T07:13:33.989Z,16.20
2018-09-09T07:16:02.189Z,16.40
2018-09-09T07:18:30.236Z,16.50
2018-09-09T07:20:58.363Z,16.60
2018-09-09T07:23:26.799Z,16.50
2018-09-09T07:25:54.868Z,16.70
2018-09-09T07:28:22.934Z,16.80
2018-09-09T07:30:51.006Z,16.90
2018-09-09T07:33:19.103Z,16.80
2018-09-09T07:35:47.150Z,17.00
2018-09-09T07:38:15.221Z,17.10
2018-09-09T07:40:43.310Z,17.10
2018-09-09T07:43:11.357Z,17.20
2018-09-09T07:45:39.432Z,17.20
2018-09-09T07:48:07.816Z,17.20
2018-09-09T07:50:35.933Z,17.20
2018-09-09T07:53:04.271Z,17.20
2018-09-09T07:55:32.348Z,17.30
2018-09-09T07:58:00.418Z,17.40
2018-09-09T08:00:28.564Z,17.50
2018-09-09T08:02:56.579Z,17.60
2018-09-09T08:05:24.699Z,17.70
2018-09-09T08:07:52.780Z,17.80
2018-09-09T08:10:27.761Z,17.80
2018-09-09T08:12:55.820Z,17.80
2018-09-09T08:15:23.889Z,17.90
2018-09-09T08:17:52.016Z,18.00
2018-09-09T08:20:20.074Z,17.90
2018-09-09T08:22:48.159Z,17.90
2018-09-09T08:25:16.217Z,17.90
2018-09-09T08:27:44.301Z,18.00
2018-09-09T08:30:12.358Z,18.10
2018-09-09T08:32:40.440Z,18.20
2018-09-09T08:35:08.517Z,18.20
2018-09-09T08:37:36.590Z,18.10
2018-09-09T08:40:05.178Z,18.20
2018-09-09T08:42:33.265Z,18.30
2018-09-09T08:45:01.341Z,18.30
2018-09-09T08:47:29.412Z,18.30
2018-09-09T08:49:57.509Z,18.40
2018-09-09T08:52:25.580Z,18.50
2018-09-09T08:54:53.678Z,18.50
2018-09-09T08:57:21.787Z,18.60
2018-09-09T08:59:49.969Z,18.70
2018-09-09T09:02:18.089Z,19.10
2018-09-09T09:04:46.135Z,19.30
2018-09-09T09:07:14.232Z,19.50
2018-09-09T09:09:42.345Z,19.60
2018-09-09T09:12:10.961Z,19.90
2018-09-09T09:14:45.675Z,20.40
2018-09-09T09:17:13.699Z,21.10
2018-09-09T09:19:41.797Z,21.20
2018-09-09T09:22:09.864Z,21.40
2018-09-09T09:24:37.921Z,21.90
2018-09-09T09:27:05.980Z,22.00
2018-09-09T09:29:39.510Z,21.90
2018-09-09T09:32:07.732Z,21.80
2018-09-09T09:34:35.823Z,21.70
2018-09-09T09:37:04.002Z,21.30
2018-09-09T09:39:32.188Z,21.40
2018-09-09T09:42:00.310Z,21.60
2018-09-09T09:44:28.437Z,21.70
2018-09-09T09:46:56.574Z,21.80
2018-09-09T09:49:24.668Z,21.90
2018-09-09T09:51:52.818Z,22.20
2018-09-09T09:54:20.870Z,22.30
2018-09-09T09:56:48.937Z,22.70
2018-09-09T09:59:17.077Z,22.90
2018-09-09T10:01:45.148Z,23.40
2018-09-09T10:04:13.229Z,23.70
2018-09-09T10:06:41.322Z,24.10
2018-09-09T10:09:10.692Z,25.20
2018-09-09T10:11:38.889Z,25.70
2018-09-09T10:14:07.038Z,25.60
2018-09-09T10:16:35.120Z,25.60
2018-09-09T10:19:03.637Z,26.10
2018-09-09T10:21:31.704Z,26.50
2018-09-09T10:23:59.914Z,26.70
2018-09-09T10:26:27.993Z,26.40
2018-09-09T10:28:56.143Z,26.50
2018-09-09T10:31:24.280Z,27.20
2018-09-09T10:33:53.369Z,28.10
2018-09-09T10:36:21.550Z,28.50
2018-09-09T10:38:49.712Z,29.10
2018-09-09T10:41:17.834Z,29.50
2018-09-09T10:43:45.896Z,29.50
2018-09-09T10:46:14.120Z,29.10
2018-09-09T10:48:42.229Z,28.90
2018-09-09T10:51:10.386Z,28.80
2018-09-09T10:53:38.479Z,29.00
2018-09-09T10:56:06.674Z,28.80
2018-09-09T10:58:34.736Z,29.00
2018-09-09T11:01:02.856Z,28.70
2018-09-09T11:03:30.985Z,28.70
2018-09-09T11:05:59.036Z,28.70
2018-09-09T11:08:27.118Z,28.70
2018-09-09T11:10:55.444Z,28.20
2018-09-09T11:13:23.505Z,28.20
2018-09-09T11:15:51.574Z,28.00
2018-09-09T11:18:19.637Z,28.10
2018-09-09T11:20:47.702Z,28.40
2018-09-09T11:23:15.770Z,29.10
2018-09-09T11:25:43.898Z,29.40
2018-09-09T11:28:11.986Z,29.90
2018-09-09T11:30:40.121Z,30.20
2018-09-09T11:33:08.241Z,30.50
2018-09-09T11:35:36.329Z,30.90
2018-09-09T11:38:04.422Z,31.70
2018-09-09T11:40:32.528Z,31.50
2018-09-09T11:43:00.700Z,31.30
2018-09-09T11:45:28.806Z,31.40
2018-09-09T11:47:57.286Z,31.90
2018-09-09T11:50:25.398Z,31.70
2018-09-09T11:52:53.458Z,31.50
2018-09-09T11:55:21.545Z,31.70
2018-09-09T11:57:49.633Z,31.90
2018-09-09T12:00:17.739Z,31.90
2018-09-09T12:02:45.807Z,31.40
2018-09-09T12:05:13.966Z,31.30
2018-09-09T12:07:42.033Z,31.50
2018-09-09T12:10:10.115Z,31.30
2018-09-09T12:12:38.236Z,30.80
2018-09-09T12:15:06.373Z,30.00
2018-09-09T12:17:34.462Z,30.80
2018-09-09T12:20:02.536Z,30.70
2018-09-09T12:22:30.635Z,30.50
2018-09-09T12:25:01.974Z,30.70
2018-09-09T12:27:30.111Z,30.70
2018-09-09T12:29:58.231Z,30.80
2018-09-09T12:32:26.363Z,30.30
2018-09-09T12:34:54.719Z,30.40
2018-09-09T12:37:22.842Z,30.70
2018-09-09T12:39:50.984Z,31.50
2018-09-09T12:42:19.306Z,32.10
2018-09-09T12:44:52.893Z,32.60
2018-09-09T12:47:26.686Z,33.20
2018-09-09T12:49:54.768Z,33.70
2018-09-09T12:52:22.858Z,33.40
2018-09-09T12:54:50.922Z,33.20
2018-09-09T12:57:19.007Z,32.90
2018-09-09T12:59:47.100Z,31.40
2018-09-09T13:02:15.184Z,30.20
2018-09-09T13:04:43.252Z,29.80
2018-09-09T13:07:11.434Z,29.90
2018-09-09T13:09:39.483Z,29.70
2018-09-09T13:12:07.661Z,29.60
2018-09-09T13:14:35.710Z,29.60
2018-09-09T13:17:03.806Z,29.20
2018-09-09T13:19:31.873Z,29.20
2018-09-09T13:21:59.939Z,29.10
2018-09-09T13:24:28.018Z,29.00
2018-09-09T13:26:56.121Z,28.80
2018-09-09T13:29:24.374Z,29.00
2018-09-09T13:31:52.461Z,29.20
2018-09-09T13:34:20.616Z,29.40
2018-09-09T13:36:48.687Z,29.50
2018-09-09T13:39:16.779Z,29.20
2018-09-09T13:41:44.891Z,29.00
2018-09-09T13:44:12.953Z,28.80
2018-09-09T13:46:41.041Z,29.00
2018-09-09T13:49:09.109Z,29.20
2018-09-09T13:51:37.356Z,29.50
2018-09-09T13:54:05.444Z,29.60
2018-09-09T13:56:33.508Z,29.30
2018-09-09T13:59:01.581Z,28.90
2018-09-09T14:01:29.691Z,28.80
2018-09-09T14:03:57.882Z,28.80
2018-09-09T14:06:25.938Z,28.90
2018-09-09T14:08:54.037Z,29.10
2018-09-09T14:11:22.143Z,29.30
2018-09-09T14:13:50.261Z,29.40
2018-09-09T14:16:18.348Z,29.30
2018-09-09T14:18:46.418Z,29.00
2018-09-09T14:21:14.508Z,28.80
2018-09-09T14:23:42.596Z,28.90
2018-09-09T14:26:10.666Z,28.80
2018-09-09T14:28:38.762Z,28.80
2018-09-09T14:31:06.829Z,28.80
2018-09-09T14:33:34.954Z,28.80
2018-09-09T14:36:03.023Z,29.00
2018-09-09T14:38:31.128Z,29.10
2018-09-09T14:40:59.226Z,29.00
2018-09-09T14:43:27.345Z,29.40
2018-09-09T14:45:55.495Z,29.60
2018-09-09T14:48:23.609Z,29.80
2018-09-09T14:50:51.711Z,29.90
2018-09-09T14:53:19.990Z,30.00
2018-09-09T14:55:47.997Z,29.70
2018-09-09T14:58:16.110Z,29.40
2018-09-09T15:00:44.182Z,29.10
2018-09-09T15:03:12.275Z,28.80
2018-09-09T15:05:41.184Z,28.90
2018-09-09T15:08:09.405Z,29.10
2018-09-09T15:10:37.483Z,30.50
2018-09-09T15:13:05.807Z,31.20
2018-09-09T15:15:33.877Z,31.30
2018-09-09T15:18:02.296Z,30.90
2018-09-09T15:20:30.457Z,30.20
2018-09-09T15:22:58.529Z,29.30
2018-09-09T15:25:26.628Z,28.50
2018-09-09T15:27:54.761Z,28.10
2018-09-09T15:30:22.970Z,27.70
2018-09-09T15:32:51.020Z,27.40
2018-09-09T15:35:19.277Z,27.20
2018-09-09T15:37:47.502Z,27.10
2018-09-09T15:40:15.841Z,26.80
2018-09-09T15:42:44.126Z,26.60
2018-09-09T15:45:12.464Z,26.50
2018-09-09T15:47:40.635Z,26.50
2018-09-09T15:50:09.124Z,26.30
2018-09-09T15:52:37.237Z,26.10
2018-09-09T15:55:05.326Z,26.00
2018-09-09T15:57:33.377Z,26.00
2018-09-09T16:00:01.454Z,25.90
2018-09-09T16:02:29.525Z,25.70
2018-09-09T16:04:57.594Z,25.60
2018-09-09T16:07:25.675Z,25.50
2018-09-09T16:09:53.772Z,25.40
2018-09-09T16:12:21.853Z,25.40
2018-09-09T16:14:49.947Z,25.30
2018-09-09T16:17:18.019Z,25.20
2018-09-09T16:19:46.105Z,25.10
2018-09-09T16:22:14.154Z,25.00
2018-09-09T16:24:42.227Z,25.00
2018-09-09T16:27:10.308Z,24.90
2018-09-09T16:29:38.362Z,24.80
2018-09-09T16:32:06.466Z,24.70
2018-09-09T16:34:34.519Z,24.50
2018-09-09T16:37:02.589Z,24.40
2018-09-09T16:39:30.727Z,24.40
2018-09-09T16:41:58.798Z,24.40
2018-09-09T16:44:26.922Z,24.30
2018-09-09T16:46:55.009Z,24.30
2018-09-09T16:49:23.095Z,24.20
2018-09-09T16:51:51.247Z,24.20
2018-09-09T16:54:19.351Z,24.10
2018-09-09T16:56:47.442Z,23.90
2018-09-09T16:59:15.550Z,23.80
2018-09-09T17:01:43.693Z,23.80
2018-09-09T17:04:11.915Z,23.70
2018-09-09T17:06:40.116Z,23.40
2018-09-09T17:09:09.634Z,23.30
2018-09-09T17:11:37.986Z,23.10
2018-09-09T17:14:08.877Z,23.00
2018-09-09T17:16:37.240Z,23.00
2018-09-09T17:19:11.684Z,22.70
2018-09-09T17:21:42.831Z,22.70
2018-09-09T17:24:14.237Z,22.50
2018-09-09T17:26:42.303Z,22.30
2018-09-09T17:29:10.404Z,22.20
2018-09-09T17:31:38.474Z,22.10
2018-09-09T17:34:06.535Z,22.10
2018-09-09T17:36:34.646Z,22.10
2018-09-09T17:39:02.800Z,22.00
2018-09-09T17:41:30.887Z,21.90
2018-09-09T17:43:58.965Z,21.80
2018-09-09T17:46:27.030Z,21.60
2018-09-09T17:48:55.112Z,21.50
2018-09-09T17:51:23.185Z,21.40
2018-09-09T17:53:51.262Z,21.20
2018-09-09T17:56:19.368Z,21.10
2018-09-09T17:58:47.454Z,21.00
2018-09-09T18:01:16.523Z,20.80
2018-09-09T18:03:44.664Z,20.70
2018-09-09T18:06:12.754Z,20.60
2018-09-09T18:08:40.888Z,20.50
2018-09-09T18:11:09.106Z,20.50
2018-09-09T18:13:37.153Z,20.40
2018-09-09T18:16:05.371Z,20.30
2018-09-09T18:18:33.476Z,20.20
2018-09-09T18:21:01.540Z,20.10
2018-09-09T18:23:29.818Z,20.00
2018-09-09T18:25:57.903Z,19.90
2018-09-09T18:28:26.198Z,19.80
2018-09-09T18:30:57.158Z,19.70
2018-09-09T18:33:25.273Z,19.70
2018-09-09T18:35:53.403Z,19.60
2018-09-09T18:38:21.523Z,19.50
2018-09-09T18:40:49.621Z,19.40
2018-09-09T18:43:17.798Z,19.30
2018-09-09T18:45:47.021Z,19.10
2018-09-09T18:48:15.169Z,19.10
2018-09-09T18:50:43.338Z,19.00
2018-09-09T18:53:11.428Z,18.90
2018-09-09T18:55:39.607Z,18.90
2018-09-09T18:58:07.732Z,18.80
2018-09-09T19:00:35.969Z,18.80
2018-09-09T19:03:04.082Z,18.70
2018-09-09T19:05:32.203Z,18.60
2018-09-09T19:08:01.437Z,18.50
2018-09-09T19:10:29.521Z,18.50
2018-09-09T19:12:57.648Z,18.40
2018-09-09T19:15:25.755Z,18.40
2018-09-09T19:17:53.848Z,18.30
2018-09-09T19:20:22.010Z,18.20
2018-09-09T19:22:50.109Z,18.10
2018-09-09T19:25:18.244Z,18.10
2018-09-09T19:27:46.412Z,18.00
2018-09-09T19:30:14.580Z,18.00
2018-09-09T19:32:42.696Z,17.90
2018-09-09T19:35:10.805Z,17.90
2018-09-09T19:37:38.913Z,17.90
2018-09-09T19:40:07.062Z,17.80
2018-09-09T19:42:37.810Z,17.80
2018-09-09T19:45:06.705Z,17.70
2018-09-09T19:47:35.046Z,17.60
2018-09-09T19:50:04.097Z,17.60
2018-09-09T19:52:32.191Z,17.60
2018-09-09T19:55:00.257Z,17.50
2018-09-09T19:57:28.413Z,17.50
2018-09-09T19:59:56.513Z,17.40
2018-09-09T20:02:24.613Z,17.40
2018-09-09T20:04:52.825Z,17.30
2018-09-09T20:07:20.857Z,17.30
2018-09-09T20:09:49.017Z,17.20
2018-09-09T20:12:17.120Z,17.20
2018-09-09T20:14:45.179Z,17.20
2018-09-09T20:17:13.342Z,17.10
2018-09-09T20:19:41.486Z,17.10
2018-09-09T20:22:11.081Z,17.00
2018-09-09T20:24:39.153Z,17.00
2018-09-09T20:27:07.353Z,17.00
2018-09-09T20:29:35.438Z,16.90
2018-09-09T20:32:03.545Z,16.90
2018-09-09T20:34:31.646Z,16.80
2018-09-09T20:36:59.748Z,16.80
2018-09-09T20:39:27.829Z,16.80
2018-09-09T20:41:55.925Z,16.70
2018-09-09T20:44:24.719Z,16.70
2018-09-09T20:46:53.481Z,16.60
2018-09-09T20:49:21.710Z,16.50
2018-09-09T20:51:49.874Z,16.50
2018-09-09T20:54:18.077Z,16.40
2018-09-09T20:56:46.192Z,16.40
2018-09-09T20:59:14.282Z,16.30
2018-09-09T21:01:42.401Z,16.20
2018-09-09T21:04:10.533Z,16.20
2018-09-09T21:06:38.617Z,16.20
2018-09-09T21:09:08.051Z,16.10
2018-09-09T21:11:36.226Z,16.00
2018-09-09T21:14:04.543Z,16.00
2018-09-09T21:16:32.651Z,16.10
2018-09-09T21:19:00.710Z,16.10
2018-09-09T21:21:28.806Z,16.00
2018-09-09T21:23:57.323Z,16.10
2018-09-09T21:26:26.261Z,16.00
2018-09-09T21:28:54.731Z,16.00
2018-09-09T21:31:23.111Z,15.90
2018-09-09T21:33:52.757Z,15.90
2018-09-09T21:36:23.084Z,15.90
2018-09-09T21:38:51.494Z,15.90
2018-09-09T21:41:20.173Z,15.90
2018-09-09T21:43:48.486Z,15.90
2018-09-09T21:46:16.584Z,15.90
2018-09-09T21:48:44.743Z,15.80
2018-09-09T21:51:12.829Z,15.80
2018-09-09T21:53:48.881Z,15.80
2018-09-09T21:56:17.081Z,15.70
2018-09-09T21:58:45.242Z,15.80
2018-09-09T22:01:19.436Z,15.70
2018-09-09T22:03:47.848Z,15.80
2018-09-09T22:06:16.474Z,15.70
2018-09-09T22:08:44.806Z,15.70
2018-09-09T22:11:14.062Z,15.70
2018-09-09T22:13:45.268Z,15.80
2018-09-09T22:16:13.419Z,15.70
2018-09-09T22:18:41.597Z,15.70
2018-09-09T22:21:10.006Z,15.70
2018-09-09T22:23:39.420Z,15.70
2018-09-09T22:26:07.489Z,15.70
2018-09-09T22:28:35.773Z,15.70
2018-09-09T22:31:04.119Z,15.70
2018-09-09T22:33:32.744Z,15.60
2018-09-09T22:36:01.433Z,15.50
2018-09-09T22:38:30.187Z,15.60
2018-09-09T22:40:58.384Z,15.60
2018-09-09T22:43:27.814Z,15.60
2018-09-09T22:45:58.856Z,15.50
2018-09-09T22:48:27.927Z,15.50
2018-09-09T22:50:56.342Z,15.50
2018-09-09T22:53:26.165Z,15.50
2018-09-09T22:55:54.572Z,15.40
2018-09-09T22:58:23.752Z,15.40
2018-09-09T23:00:51.933Z,15.40
2018-09-09T23:03:20.733Z,15.40
2018-09-09T23:05:49.967Z,15.30
2018-09-09T23:08:18.202Z,15.30
2018-09-09T23:10:46.580Z,15.30
2018-09-09T23:13:14.873Z,15.20
2018-09-09T23:15:43.276Z,15.20
2018-09-09T23:18:11.525Z,15.20
2018-09-09T23:20:40.230Z,15.10
2018-09-09T23:23:08.677Z,15.10
2018-09-09T23:25:37.874Z,15.10
2018-09-09T23:28:06.558Z,15.10
2018-09-09T23:30:35.132Z,15.00
2018-09-09T23:33:04.396Z,15.00
2018-09-09T23:35:32.664Z,15.00
2018-09-09T23:38:01.451Z,14.90
2018-09-09T23:40:30.612Z,14.90
2018-09-09T23:42:59.446Z,14.90
2018-09-09T23:45:27.914Z,14.90
2018-09-09T23:47:57.066Z,14.90
2018-09-09T23:50:25.237Z,14.90
2018-09-09T23:52:53.348Z,14.90
2018-09-09T23:55:21.438Z,14.90
2018-09-09T23:57:49.936Z,14.90
